Time;durP1;ratioP1;P1;durP2;ratioP2;P2;SDS_P1;SDS_P2;PMS_P1;PMS_P2;Temp;Humidity;BMP_temperature;BMP_pressure;BME280_temperature;BME280_humidity;BME280_pressure;Samples;Min_cycle;Max_cycle;Signal;HPM_P1;HPM_P2
2024/02/02 00:03:26;;;;;;;17.48;13.60;;;;;;;;;;10252287;28;20580;-64
2024/02/02 00:08:26;;;;;;;19.58;14.65;;;;;;;;;;10251141;28;20084;-63
2024/02/02 00:13:24;;;;;;;20.45;13.95;;;;;;;;;;10247707;28;20077;-63
2024/02/02 00:18:22;;;;;;;18.90;14.43;;;;;;;;;;10245440;28;20471;-64
2024/02/02 00:23:21;;;;;;;20.58;14.50;;;;;;;;;;10246817;28;20096;-63
2024/02/02 00:28:21;;;;;;;18.17;14.90;;;;;;;;;;10252609;28;20073;-63
2024/02/02 00:33:19;;;;;;;18.85;15.40;;;;;;;;;;10249831;28;20069;-63
2024/02/02 00:38:17;;;;;;;20.75;15.18;;;;;;;;;;10250446;28;20081;-62
2024/02/02 00:43:16;;;;;;;16.25;13.77;;;;;;;;;;10251722;28;20049;-64
2024/02/02 00:48:16;;;;;;;18.23;13.60;;;;;;;;;;10249912;28;20604;-62
2024/02/02 00:53:14;;;;;;;17.58;14.00;;;;;;;;;;10250837;28;20072;-63
2024/02/02 00:58:12;;;;;;;22.25;16.63;;;;;;;;;;10251158;28;20081;-63
2024/02/02 01:03:11;;;;;;;24.35;15.60;;;;;;;;;;10251012;28;20451;-63
2024/02/02 01:08:10;;;;;;;25.95;18.92;;;;;;;;;;10255776;28;20044;-63
2024/02/02 01:13:09;;;;;;;32.53;22.70;;;;;;;;;;10259174;28;20101;-63
2024/02/02 01:18:08;;;;;;;49.25;27.20;;;;;;;;;;10255747;28;20077;-64
2024/02/02 01:23:06;;;;;;;20.98;15.60;;;;;;;;;;10256356;28;20072;-63
2024/02/02 01:28:06;;;;;;;29.45;21.00;;;;;;;;;;10256470;28;20447;-63
2024/02/02 01:33:05;;;;;;;23.65;18.55;;;;;;;;;;10257174;28;20073;-64
2024/02/02 01:38:04;;;;;;;19.63;15.50;;;;;;;;;;10259475;28;20088;-63
2024/02/02 01:43:03;;;;;;;17.50;11.65;;;;;;;;;;10257323;28;20182;-63
2024/02/02 01:48:03;;;;;;;16.90;11.45;;;;;;;;;;10249827;28;20065;-63
2024/02/02 01:53:02;;;;;;;13.50;10.90;;;;;;;;;;10257574;28;20069;-63
2024/02/02 01:58:00;;;;;;;14.73;11.80;;;;;;;;;;10256434;28;20466;-63
2024/02/02 02:02:58;;;;;;;13.90;11.60;;;;;;;;;;10256958;28;20064;-62
2024/02/02 02:07:59;;;;;;;16.17;12.02;;;;;;;;;;10256128;28;20081;-63
2024/02/02 02:12:58;;;;;;;14.77;12.15;;;;;;;;;;10255902;28;20485;-62
2024/02/02 02:17:56;;;;;;;16.45;12.82;;;;;;;;;;10254601;28;20080;-63
2024/02/02 02:22:56;;;;;;;15.52;13.02;;;;;;;;;;10256893;28;20470;-63
2024/02/02 02:27:54;;;;;;;16.95;12.98;;;;;;;;;;10257013;28;20057;-63
2024/02/02 02:32:52;;;;;;;19.63;14.73;;;;;;;;;;10256588;28;20065;-63
2024/02/02 02:37:51;;;;;;;16.25;14.48;;;;;;;;;;10257688;28;20073;-63
2024/02/02 02:42:52;;;;;;;18.75;14.60;;;;;;;;;;10254319;28;20511;-63
2024/02/02 02:47:50;;;;;;;20.67;15.55;;;;;;;;;;10256229;28;20076;-63
2024/02/02 02:52:48;;;;;;;16.25;13.77;;;;;;;;;;10254569;28;20080;-63
2024/02/02 02:57:47;;;;;;;17.33;13.70;;;;;;;;;;10254207;28;20073;-63
2024/02/02 03:02:46;;;;;;;21.02;14.60;;;;;;;;;;10254013;28;20077;-63
2024/02/02 03:07:45;;;;;;;21.52;16.73;;;;;;;;;;10252424;28;20075;-63
2024/02/02 03:12:43;;;;;;;20.35;16.77;;;;;;;;;;10253983;28;20199;-64
2024/02/02 03:17:42;;;;;;;20.58;16.73;;;;;;;;;;10252698;28;20088;-64
2024/02/02 03:22:41;;;;;;;18.00;16.02;;;;;;;;;;10254474;28;20068;-64
2024/02/02 03:27:40;;;;;;;20.92;15.45;;;;;;;;;;10254127;28;20079;-62
2024/02/02 03:32:38;;;;;;;23.40;16.73;;;;;;;;;;10253326;28;20076;-63
2024/02/02 03:37:36;;;;;;;25.10;15.23;;;;;;;;;;10253782;28;20068;-63
2024/02/02 03:42:36;;;;;;;20.10;16.13;;;;;;;;;;10250703;28;20474;-63
2024/02/02 03:47:34;;;;;;;19.88;15.55;;;;;;;;;;10253208;28;21033;-63
2024/02/02 03:52:33;;;;;;;19.20;14.43;;;;;;;;;;10250719;28;20081;-63
2024/02/02 03:57:31;;;;;;;19.50;14.85;;;;;;;;;;10251105;28;20045;-63
2024/02/02 04:02:31;;;;;;;19.15;15.18;;;;;;;;;;10253549;28;20442;-63
2024/02/02 04:07:29;;;;;;;20.45;15.20;;;;;;;;;;10250576;28;20072;-63
2024/02/02 04:12:28;;;;;;;20.92;14.70;;;;;;;;;;10250968;28;20077;-64
2024/02/02 04:17:26;;;;;;;20.20;14.13;;;;;;;;;;10251586;28;20522;-64
2024/02/02 04:22:26;;;;;;;19.02;14.70;;;;;;;;;;10252790;28;20072;-63
2024/02/02 04:27:24;;;;;;;17.73;14.20;;;;;;;;;;10251379;28;20455;-63
2024/02/02 04:32:23;;;;;;;21.15;17.85;;;;;;;;;;10252327;28;20077;-63
2024/02/02 04:37:21;;;;;;;18.67;14.63;;;;;;;;;;10248482;28;20073;-63
2024/02/02 04:42:21;;;;;;;31.42;25.35;;;;;;;;;;10254954;28;20073;-63
2024/02/02 04:47:19;;;;;;;20.25;16.27;;;;;;;;;;10259290;28;20076;-63
2024/02/02 04:52:17;;;;;;;18.17;16.23;;;;;;;;;;10261529;28;20080;-64
2024/02/02 04:57:16;;;;;;;19.63;16.13;;;;;;;;;;10261558;28;20091;-63
2024/02/02 05:02:16;;;;;;;18.83;16.15;;;;;;;;;;10261900;28;20115;-62
2024/02/02 05:07:14;;;;;;;26.55;18.08;;;;;;;;;;10261137;28;20073;-63
2024/02/02 05:12:15;;;;;;;80.18;52.88;;;;;;;;;;10259881;28;20521;-62
2024/02/02 05:17:14;;;;;;;151.27;89.78;;;;;;;;;;10261616;28;20087;-63
2024/02/02 05:22:13;;;;;;;105.45;67.70;;;;;;;;;;10258635;28;20081;-63
2024/02/02 05:27:12;;;;;;;162.13;101.05;;;;;;;;;;10260024;28;20748;-61
2024/02/02 05:32:11;;;;;;;27.05;19.90;;;;;;;;;;10255361;28;20073;-63
2024/02/02 05:37:09;;;;;;;104.30;62.05;;;;;;;;;;10251927;28;20083;-63
2024/02/02 05:42:09;;;;;;;42.97;29.10;;;;;;;;;;10251286;28;20075;-63
2024/02/02 05:47:07;;;;;;;37.42;25.58;;;;;;;;;;10253566;28;20065;-63
2024/02/02 05:52:06;;;;;;;66.57;46.72;;;;;;;;;;10248354;28;20499;-63
2024/02/02 05:57:04;;;;;;;50.13;36.97;;;;;;;;;;10251818;28;20079;-64
2024/02/02 06:02:04;;;;;;;36.05;28.15;;;;;;;;;;10251890;28;20068;-63
2024/02/02 06:07:02;;;;;;;33.38;26.58;;;;;;;;;;10255065;28;20075;-63
2024/02/02 06:12:01;;;;;;;48.80;31.30;;;;;;;;;;10258150;28;20064;-63
2024/02/02 06:16:59;;;;;;;41.58;30.55;;;;;;;;;;10263171;28;20096;-63
2024/02/02 06:22:02;;;;;;;51.22;33.28;;;;;;;;;;10254467;28;20533;-62
2024/02/02 06:27:00;;;;;;;47.65;33.28;;;;;;;;;;10253737;28;20076;-63
2024/02/02 06:31:58;;;;;;;36.45;28.52;;;;;;;;;;10254550;28;20061;-62
2024/02/02 06:36:57;;;;;;;33.33;26.67;;;;;;;;;;10258968;28;20086;-62
2024/02/02 06:41:56;;;;;;;45.33;34.10;;;;;;;;;;10254900;28;20084;-63
2024/02/02 06:46:55;;;;;;;35.50;28.00;;;;;;;;;;10255957;28;20070;-63
2024/02/02 06:51:53;;;;;;;26.90;22.85;;;;;;;;;;10255568;28;20073;-63
2024/02/02 06:56:51;;;;;;;23.00;19.45;;;;;;;;;;10256445;28;20069;-64
2024/02/02 07:01:51;;;;;;;23.33;19.35;;;;;;;;;;10254719;28;20564;-63
2024/02/02 07:06:50;;;;;;;26.33;20.85;;;;;;;;;;10256431;28;20077;-62
2024/02/02 07:11:59;;;;;;;27.85;20.25;;;;;;;;;;10255816;28;20072;-62
2024/02/02 07:16:59;;;;;;;22.15;17.88;;;;;;;;;;10249286;28;20073;-63
2024/02/02 07:21:57;;;;;;;20.73;17.38;;;;;;;;;;10253462;28;20525;-64
2024/02/02 07:26:56;;;;;;;22.40;16.85;;;;;;;;;;10259331;28;20073;-64
2024/02/02 07:31:54;;;;;;;21.40;17.30;;;;;;;;;;10252823;28;20057;-62
2024/02/02 07:36:54;;;;;;;18.50;16.30;;;;;;;;;;10254929;28;20079;-62
2024/02/02 07:41:52;;;;;;;20.42;17.58;;;;;;;;;;10247712;28;20068;-63
2024/02/02 07:46:51;;;;;;;21.30;16.85;;;;;;;;;;10252205;28;20069;-63
2024/02/02 07:51:49;;;;;;;18.38;15.63;;;;;;;;;;10258563;28;20069;-63
2024/02/02 07:56:49;;;;;;;20.48;16.70;;;;;;;;;;10253390;28;20511;-63
2024/02/02 08:01:47;;;;;;;19.25;15.60;;;;;;;;;;10252236;28;20081;-63
2024/02/02 08:06:47;;;;;;;30.00;18.73;;;;;;;;;;10253281;28;20075;-63
2024/02/02 08:11:46;;;;;;;19.92;17.08;;;;;;;;;;10250965;28;20073;-63
2024/02/02 08:16:45;;;;;;;20.67;17.73;;;;;;;;;;10249714;28;20111;-62
2024/02/02 08:21:44;;;;;;;21.50;17.42;;;;;;;;;;10252757;28;20576;-62
2024/02/02 08:26:42;;;;;;;25.02;16.20;;;;;;;;;;10248121;28;20077;-63
2024/02/02 08:31:44;;;;;;;18.98;16.60;;;;;;;;;;10246694;28;20069;-62
2024/02/02 08:36:44;;;;;;;20.95;16.63;;;;;;;;;;10248032;28;20069;-63
2024/02/02 08:41:42;;;;;;;42.13;28.05;;;;;;;;;;10248064;28;20095;-63
2024/02/02 08:46:41;;;;;;;42.00;29.45;;;;;;;;;;10251687;28;20091;-64
2024/02/02 08:51:49;;;;;;;22.95;19.13;;;;;;;;;;10249515;28;20514;-64
2024/02/02 08:56:53;;;;;;;35.88;25.30;;;;;;;;;;10247271;28;20076;-62
2024/02/02 09:01:51;;;;;;;43.10;30.00;;;;;;;;;;10250383;28;20073;-62
2024/02/02 09:06:50;;;;;;;25.20;18.33;;;;;;;;;;10250185;28;20076;-63
2024/02/02 09:11:50;;;;;;;26.27;19.40;;;;;;;;;;10251087;28;20061;-63
2024/02/02 09:16:50;;;;;;;21.83;19.08;;;;;;;;;;10250318;28;20100;-63
2024/02/02 09:21:49;;;;;;;23.15;16.88;;;;;;;;;;10251466;28;20083;-63
2024/02/02 09:26:47;;;;;;;24.25;18.05;;;;;;;;;;10251536;28;20069;-64
2024/02/02 09:31:47;;;;;;;23.77;19.10;;;;;;;;;;10255717;28;20053;-64
2024/02/02 09:36:45;;;;;;;24.10;19.73;;;;;;;;;;10257073;28;20103;-63
2024/02/02 09:41:57;;;;;;;36.17;20.67;;;;;;;;;;10258361;28;20545;-61
2024/02/02 09:47:00;;;;;;;27.33;24.42;;;;;;;;;;10260804;28;20083;-63
2024/02/02 09:52:01;;;;;;;30.20;23.95;;;;;;;;;;10255224;28;20061;-63
2024/02/02 09:57:03;;;;;;;31.52;23.08;;;;;;;;;;10258421;28;20095;-64
2024/02/02 10:02:19;;;;;;;38.08;29.30;;;;;;;;;;10260983;28;20073;-63
2024/02/02 10:07:27;;;;;;;34.47;23.33;;;;;;;;;;10249870;28;20076;-63
2024/02/02 10:12:31;;;;;;;40.80;28.05;;;;;;;;;;10256723;28;20065;-63
2024/02/02 10:17:33;;;;;;;38.83;27.15;;;;;;;;;;10253061;28;20080;-63
2024/02/02 10:22:46;;;;;;;69.70;48.50;;;;;;;;;;10264541;28;20053;-63
2024/02/02 10:27:59;;;;;;;62.70;43.15;;;;;;;;;;10257327;28;20076;-64
2024/02/02 10:33:09;;;;;;;38.65;28.02;;;;;;;;;;10254715;28;20096;-63
2024/02/02 10:38:17;;;;;;;51.47;34.45;;;;;;;;;;10254622;28;20065;-63
2024/02/02 10:43:29;;;;;;;33.58;26.83;;;;;;;;;;10254597;28;20083;-63
2024/02/02 10:48:36;;;;;;;29.50;18.15;;;;;;;;;;10258232;28;20148;-63
2024/02/02 10:53:52;;;;;;;18.27;14.50;;;;;;;;;;10255927;28;20064;-63
2024/02/02 10:58:59;;;;;;;19.85;15.48;;;;;;;;;;10255219;28;20132;-63
2024/02/02 11:04:03;;;;;;;18.95;14.02;;;;;;;;;;10253884;28;20076;-63
2024/02/02 11:09:03;;;;;;;16.35;13.20;;;;;;;;;;10256613;28;20069;-63
2024/02/02 11:14:09;;;;;;;17.80;12.52;;;;;;;;;;10258096;28;20083;-63
2024/02/02 11:19:17;;;;;;;15.48;13.02;;;;;;;;;;10255298;28;20076;-63
2024/02/02 11:24:19;;;;;;;15.13;12.52;;;;;;;;;;10253679;28;20103;-64
2024/02/02 11:29:24;;;;;;;22.77;13.85;;;;;;;;;;10259266;28;20069;-62
2024/02/02 11:34:32;;;;;;;17.08;14.23;;;;;;;;;;10254475;28;20101;-64
2024/02/02 11:39:39;;;;;;;20.05;15.98;;;;;;;;;;10251759;28;20069;-62
2024/02/02 11:44:41;;;;;;;18.25;14.55;;;;;;;;;;10256510;28;20060;-62
2024/02/02 11:49:45;;;;;;;20.48;15.85;;;;;;;;;;10256100;28;20075;-62
2024/02/02 11:54:45;;;;;;;20.58;15.63;;;;;;;;;;10254716;28;20068;-62
2024/02/02 11:59:45;;;;;;;23.80;18.85;;;;;;;;;;10255550;28;20068;-62
2024/02/02 12:04:45;;;;;;;19.45;15.25;;;;;;;;;;10251349;28;20084;-63
2024/02/02 12:09:44;;;;;;;27.75;18.83;;;;;;;;;;10251884;28;20069;-62
2024/02/02 12:14:47;;;;;;;18.08;13.77;;;;;;;;;;10251241;28;20088;-65
2024/02/02 12:19:46;;;;;;;19.13;15.00;;;;;;;;;;10254932;28;20076;-62
2024/02/02 12:24:45;;;;;;;15.32;12.18;;;;;;;;;;10251942;28;20154;-63
2024/02/02 12:29:45;;;;;;;18.55;12.35;;;;;;;;;;10255337;28;20079;-64
2024/02/02 12:34:43;;;;;;;20.63;14.05;;;;;;;;;;10253088;28;20530;-63
2024/02/02 12:39:42;;;;;;;13.88;12.43;;;;;;;;;;10255215;28;20088;-62
2024/02/02 12:44:40;;;;;;;15.05;13.48;;;;;;;;;;10252652;28;20089;-63
2024/02/02 12:49:41;;;;;;;30.13;23.02;;;;;;;;;;10254196;28;20489;-64
2024/02/02 12:54:40;;;;;;;17.73;13.85;;;;;;;;;;10256076;28;20073;-63
2024/02/02 12:59:39;;;;;;;28.08;20.23;;;;;;;;;;10253151;28;20076;-64
2024/02/02 13:04:37;;;;;;;31.33;22.10;;;;;;;;;;10257806;28;20080;-63
2024/02/02 13:09:40;;;;;;;17.00;13.55;;;;;;;;;;10260337;28;20742;-63
2024/02/02 13:14:39;;;;;;;23.15;17.13;;;;;;;;;;10258046;28;20076;-63
2024/02/02 13:19:38;;;;;;;23.95;17.83;;;;;;;;;;10255289;28;20076;-63
2024/02/02 13:24:48;;;;;;;21.60;15.20;;;;;;;;;;10257702;28;20073;-63
2024/02/02 13:29:51;;;;;;;13.88;11.27;;;;;;;;;;10257697;28;20477;-62
2024/02/02 13:34:52;;;;;;;13.40;11.77;;;;;;;;;;10252639;28;20075;-63
2024/02/02 13:39:55;;;;;;;50.28;37.90;;;;;;;;;;10257457;28;20462;-63
2024/02/02 13:44:53;;;;;;;16.30;14.25;;;;;;;;;;10256302;28;20080;-63
2024/02/02 13:50:00;;;;;;;19.10;14.70;;;;;;;;;;10257095;28;20080;-63
2024/02/02 13:55:00;;;;;;;19.13;16.13;;;;;;;;;;10257932;28;20076;-62
2024/02/02 13:59:59;;;;;;;20.55;14.30;;;;;;;;;;10260510;28;20092;-62
2024/02/02 14:04:58;;;;;;;20.45;14.50;;;;;;;;;;10265902;28;20103;-62
2024/02/02 14:10:02;;;;;;;21.95;16.67;;;;;;;;;;10271084;28;20068;-62
2024/02/02 14:15:02;;;;;;;20.50;16.33;;;;;;;;;;10260761;28;20065;-62
2024/02/02 14:20:05;;;;;;;22.00;18.55;;;;;;;;;;10256036;28;20088;-63
2024/02/02 14:25:06;;;;;;;26.20;22.88;;;;;;;;;;10255173;28;20080;-64
2024/02/02 14:30:07;;;;;;;23.75;18.45;;;;;;;;;;10255779;28;20069;-62
2024/02/02 14:35:07;;;;;;;20.02;17.55;;;;;;;;;;10250368;28;20069;-62
2024/02/02 14:40:11;;;;;;;22.33;16.20;;;;;;;;;;10256176;28;20287;-62
2024/02/02 14:45:11;;;;;;;23.30;18.55;;;;;;;;;;10255407;28;20073;-63
2024/02/02 14:50:09;;;;;;;37.50;27.33;;;;;;;;;;10254203;28;20069;-63
2024/02/02 14:55:09;;;;;;;19.63;16.15;;;;;;;;;;10258702;28;20072;-61
2024/02/02 15:00:18;;;;;;;20.92;14.52;;;;;;;;;;10256755;28;20080;-62
2024/02/02 15:05:16;;;;;;;22.27;14.85;;;;;;;;;;10253318;28;20080;-61
2024/02/02 15:10:17;;;;;;;22.42;14.10;;;;;;;;;;10253579;28;20092;-62
2024/02/02 15:15:15;;;;;;;14.93;11.82;;;;;;;;;;10255233;28;20081;-61
2024/02/02 15:20:14;;;;;;;16.17;10.68;;;;;;;;;;10251973;28;20077;-62
2024/02/02 15:25:12;;;;;;;17.20;12.30;;;;;;;;;;10248986;28;20840;-62
2024/02/02 15:30:12;;;;;;;12.02;9.52;;;;;;;;;;10253371;28;20072;-63
2024/02/02 15:35:13;;;;;;;15.95;12.95;;;;;;;;;;10256508;28;20068;-63
2024/02/02 15:40:13;;;;;;;14.43;10.40;;;;;;;;;;10255217;28;20731;-62
2024/02/02 15:45:13;;;;;;;17.27;15.45;;;;;;;;;;10251542;28;20065;-63
2024/02/02 15:50:12;;;;;;;17.33;12.80;;;;;;;;;;10247691;28;20530;-64
2024/02/02 15:55:10;;;;;;;18.10;13.45;;;;;;;;;;10250157;28;20077;-62
2024/02/02 16:00:09;;;;;;;20.75;16.30;;;;;;;;;;10252801;28;20098;-63
2024/02/02 16:05:14;;;;;;;19.70;13.52;;;;;;;;;;10252992;28;20076;-63
2024/02/02 16:10:13;;;;;;;34.55;26.10;;;;;;;;;;10252037;28;20092;-63
2024/02/02 16:15:12;;;;;;;38.08;29.00;;;;;;;;;;10255577;28;20065;-62
2024/02/02 16:20:12;;;;;;;77.28;51.47;;;;;;;;;;10258672;28;20084;-63
2024/02/02 16:25:11;;;;;;;90.20;63.30;;;;;;;;;;10252821;28;20475;-63
2024/02/02 16:30:12;;;;;;;133.02;92.60;;;;;;;;;;10255621;28;20065;-63
2024/02/02 16:35:12;;;;;;;121.32;76.55;;;;;;;;;;10256603;28;20085;-63
2024/02/02 16:40:11;;;;;;;99.32;63.00;;;;;;;;;;10265197;28;20518;-63
2024/02/02 16:45:10;;;;;;;170.80;109.75;;;;;;;;;;10265484;28;20069;-63
2024/02/02 16:50:08;;;;;;;89.05;63.70;;;;;;;;;;10261107;28;20771;-62
2024/02/02 16:55:08;;;;;;;163.93;107.53;;;;;;;;;;10266512;28;20073;-61
2024/02/02 17:00:08;;;;;;;60.17;44.58;;;;;;;;;;10258984;28;20095;-62
2024/02/02 17:05:07;;;;;;;39.45;24.95;;;;;;;;;;10258360;28;20073;-62
2024/02/02 17:10:08;;;;;;;92.53;56.78;;;;;;;;;;10263557;28;20077;-63
2024/02/02 17:15:08;;;;;;;185.25;123.50;;;;;;;;;;10263922;28;20061;-63
2024/02/02 17:20:10;;;;;;;58.78;40.78;;;;;;;;;;10258870;28;20076;-63
2024/02/02 17:25:09;;;;;;;34.30;26.42;;;;;;;;;;10258408;28;20400;-63
2024/02/02 17:30:12;;;;;;;46.53;35.88;;;;;;;;;;10255563;28;20083;-62
2024/02/02 17:35:14;;;;;;;53.58;37.10;;;;;;;;;;10261021;28;20522;-63
2024/02/02 17:40:18;;;;;;;36.85;30.23;;;;;;;;;;10256124;28;20068;-63
2024/02/02 17:45:32;;;;;;;36.92;28.02;;;;;;;;;;10249999;28;20556;-62
2024/02/02 17:50:43;;;;;;;44.00;32.55;;;;;;;;;;10252023;28;20112;-63
2024/02/02 17:55:50;;;;;;;37.20;28.33;;;;;;;;;;10255835;28;20064;-62
2024/02/02 18:00:50;;;;;;;33.42;25.88;;;;;;;;;;10258650;28;20490;-62
2024/02/02 18:05:48;;;;;;;38.17;30.38;;;;;;;;;;10257542;28;20080;-62
2024/02/02 18:10:47;;;;;;;37.80;29.42;;;;;;;;;;10252158;28;20073;-63
2024/02/02 18:15:47;;;;;;;48.85;39.13;;;;;;;;;;10257678;28;20069;-63
2024/02/02 18:20:49;;;;;;;36.67;29.70;;;;;;;;;;10261673;28;20499;-63
2024/02/02 18:25:50;;;;;;;36.05;28.63;;;;;;;;;;10267352;28;20073;-62
2024/02/02 18:30:48;;;;;;;39.47;29.90;;;;;;;;;;10264956;28;20490;-63
2024/02/02 18:35:46;;;;;;;43.47;29.65;;;;;;;;;;10258148;28;20075;-63
2024/02/02 18:40:49;;;;;;;55.45;46.53;;;;;;;;;;10264844;28;20518;-63
2024/02/02 18:45:48;;;;;;;41.88;33.15;;;;;;;;;;10259763;28;20068;-62
2024/02/02 18:50:46;;;;;;;59.05;44.08;;;;;;;;;;10255637;28;20182;-63
2024/02/02 18:55:46;;;;;;;38.42;29.88;;;;;;;;;;10257251;28;20080;-63
2024/02/02 19:00:47;;;;;;;41.85;30.42;;;;;;;;;;10258997;28;20083;-63
2024/02/02 19:05:46;;;;;;;31.08;26.02;;;;;;;;;;10257807;28;20073;-62
2024/02/02 19:10:46;;;;;;;28.55;22.17;;;;;;;;;;10256934;28;20068;-63
2024/02/02 19:15:44;;;;;;;37.50;29.85;;;;;;;;;;10258466;28;20072;-63
2024/02/02 19:20:44;;;;;;;32.50;27.95;;;;;;;;;;10256061;28;20480;-62
2024/02/02 19:25:42;;;;;;;31.45;24.48;;;;;;;;;;10250477;28;20091;-62
2024/02/02 19:30:43;;;;;;;45.70;35.53;;;;;;;;;;10253958;28;20132;-63
2024/02/02 19:35:41;;;;;;;38.45;29.45;;;;;;;;;;10251194;28;20471;-63
2024/02/02 19:40:40;;;;;;;38.38;28.00;;;;;;;;;;10254679;28;20061;-63
2024/02/02 19:45:40;;;;;;;39.63;26.13;;;;;;;;;;10255386;28;20319;-61
2024/02/02 19:50:40;;;;;;;39.33;29.73;;;;;;;;;;10255030;28;20596;-62
2024/02/02 19:55:38;;;;;;;29.05;22.52;;;;;;;;;;10255874;28;20065;-62
2024/02/02 20:00:38;;;;;;;26.50;19.67;;;;;;;;;;10256625;28;20079;-63
2024/02/02 20:05:36;;;;;;;23.58;20.17;;;;;;;;;;10256019;28;20084;-61
2024/02/02 20:10:36;;;;;;;25.75;20.42;;;;;;;;;;10255642;28;20064;-64
2024/02/02 20:15:36;;;;;;;23.80;20.95;;;;;;;;;;10254932;28;20068;-62
2024/02/02 20:20:36;;;;;;;30.30;21.85;;;;;;;;;;10252926;28;20060;-62
2024/02/02 20:25:34;;;;;;;34.65;24.17;;;;;;;;;;10252087;28;20088;-61
2024/02/02 20:30:34;;;;;;;24.05;20.55;;;;;;;;;;10260823;28;20064;-62
2024/02/02 20:35:33;;;;;;;25.50;22.20;;;;;;;;;;10250997;28;20077;-61
2024/02/02 20:40:31;;;;;;;25.30;21.02;;;;;;;;;;10247336;28;20068;-62
2024/02/02 20:45:30;;;;;;;24.52;20.63;;;;;;;;;;10259736;28;20089;-63
2024/02/02 20:50:29;;;;;;;24.55;20.50;;;;;;;;;;10251371;28;20466;-63
2024/02/02 20:55:28;;;;;;;26.33;20.63;;;;;;;;;;10257508;28;20558;-62
2024/02/02 21:00:26;;;;;;;22.88;19.77;;;;;;;;;;10266048;28;20073;-63
2024/02/02 21:05:24;;;;;;;21.63;18.02;;;;;;;;;;10265747;28;20095;-62
2024/02/02 21:10:24;;;;;;;22.75;17.50;;;;;;;;;;10261853;28;20057;-63
2024/02/02 21:15:23;;;;;;;21.15;17.45;;;;;;;;;;10258748;28;20073;-63
2024/02/02 21:20:22;;;;;;;21.15;17.88;;;;;;;;;;10253697;28;20518;-62
2024/02/02 21:25:20;;;;;;;24.85;20.35;;;;;;;;;;10256610;28;20088;-62
2024/02/02 21:30:20;;;;;;;29.45;23.30;;;;;;;;;;10258121;28;20064;-62
2024/02/02 21:35:18;;;;;;;27.40;22.00;;;;;;;;;;10263432;28;20065;-62
2024/02/02 21:40:16;;;;;;;26.08;21.70;;;;;;;;;;10257652;28;20061;-63
2024/02/02 21:45:15;;;;;;;38.83;25.83;;;;;;;;;;10258958;28;20068;-63
2024/02/02 21:50:15;;;;;;;50.70;40.58;;;;;;;;;;10257084;28;20068;-63
2024/02/02 21:55:13;;;;;;;37.42;30.73;;;;;;;;;;10257927;28;20064;-62
2024/02/02 22:00:12;;;;;;;38.70;32.50;;;;;;;;;;10257251;28;20495;-61
2024/02/02 22:05:11;;;;;;;47.78;35.58;;;;;;;;;;10258051;28;20076;-62
2024/02/02 22:10:11;;;;;;;39.42;32.05;;;;;;;;;;10263272;28;20037;-62
2024/02/02 22:15:10;;;;;;;47.50;30.40;;;;;;;;;;10258516;28;20076;-62
2024/02/02 22:20:09;;;;;;;67.20;48.13;;;;;;;;;;10256650;28;20084;-62
2024/02/02 22:25:07;;;;;;;70.45;48.58;;;;;;;;;;10256593;28;20073;-62
2024/02/02 22:30:08;;;;;;;33.47;25.63;;;;;;;;;;10255095;28;20065;-63
2024/02/02 22:35:08;;;;;;;66.03;46.03;;;;;;;;;;10260781;28;20065;-63
2024/02/02 22:40:07;;;;;;;58.42;40.42;;;;;;;;;;10256149;28;20104;-62
2024/02/02 22:45:08;;;;;;;62.97;45.90;;;;;;;;;;10255761;28;20073;-62
2024/02/02 22:50:07;;;;;;;117.78;72.57;;;;;;;;;;10255562;28;20053;-62
2024/02/02 22:55:09;;;;;;;41.45;30.73;;;;;;;;;;10250167;28;20079;-62
2024/02/02 23:00:17;;;;;;;93.85;59.05;;;;;;;;;;10251429;28;20069;-62
2024/02/02 23:05:16;;;;;;;76.63;52.65;;;;;;;;;;10249564;28;20529;-62
2024/02/02 23:10:15;;;;;;;58.03;41.47;;;;;;;;;;10256360;28;20476;-63
2024/02/02 23:15:16;;;;;;;52.90;37.50;;;;;;;;;;10255829;28;20069;-62
2024/02/02 23:20:17;;;;;;;77.78;53.58;;;;;;;;;;10250350;28;20076;-62
2024/02/02 23:25:19;;;;;;;62.80;42.60;;;;;;;;;;10252959;28;20061;-63
2024/02/02 23:30:19;;;;;;;56.70;40.72;;;;;;;;;;10251104;28;20065;-62
2024/02/02 23:35:17;;;;;;;77.03;50.28;;;;;;;;;;10249630;28;20471;-62
2024/02/02 23:40:16;;;;;;;212.57;124.13;;;;;;;;;;10253755;28;20064;-63
2024/02/02 23:45:14;;;;;;;86.80;63.05;;;;;;;;;;10252403;28;20068;-62
2024/02/02 23:50:14;;;;;;;83.43;63.97;;;;;;;;;;10252638;28;20065;-62
2024/02/02 23:55:12;;;;;;;52.67;40.05;;;;;;;;;;10252062;28;20537;-63
